SESA/SNC METAR and TAF weather

Enter ICAO airport designator
Station Type Date Time Source
SESA METAR 2019/12/09 13:00 UTC NOAA

SESA 091300Z 22010KT 9999 BKN012 OVC020 24/21 Q1012 RMK A2991


Station Type Date Time Source
SESA Decoded METAR 2019/12/09 13:00 UTC NOAA

Salinas / General Ulpiano Paez, Ecuador (SESA) 02-12S 080-59W 8M
Dec 09, 2019 - 08:00 AM EST / 2019.12.09 1300 UTC
Wind: from the SW (220 degrees) at 12 MPH (10 KT):0
Visibility: greater than 7 mile(s):0
Sky conditions: overcast
Temperature: 75 F (24 C)
Dew Point: 69 F (21 C)
Relative Humidity: 83%
Pressure (altimeter): 29.88 in. Hg (1012 hPa)
ob: SESA 091300Z 22010KT 9999 BKN012 OVC020 24/21 Q1012 RMK A2991
cycle: 13

Station Type Date Time Source
SESA TAF UTC NOAA

Error!

Example: see airport list